sensor_id;sensor_type;location;lat;lon;timestamp;P1;durP1;ratioP1;P2;durP2;ratioP2
19161;SDS011;9713;48.140;11.530;2023-01-23T00:00:13;45.70;;;19.60;;
19161;SDS011;9713;48.140;11.530;2023-01-23T00:03:57;43.93;;;19.03;;
19161;SDS011;9713;48.140;11.530;2023-01-23T00:07:41;43.33;;;19.27;;
19161;SDS011;9713;48.140;11.530;2023-01-23T00:11:28;40.83;;;17.93;;
19161;SDS011;9713;48.140;11.530;2023-01-23T00:15:12;41.63;;;18.50;;
19161;SDS011;9713;48.140;11.530;2023-01-23T00:18:54;41.17;;;18.67;;
19161;SDS011;9713;48.140;11.530;2023-01-23T00:22:37;41.43;;;17.87;;
19161;SDS011;9713;48.140;11.530;2023-01-23T00:26:21;37.57;;;17.40;;
19161;SDS011;9713;48.140;11.530;2023-01-23T00:30:07;39.47;;;17.30;;
19161;SDS011;9713;48.140;11.530;2023-01-23T00:33:52;37.80;;;16.63;;
19161;SDS011;9713;48.140;11.530;2023-01-23T00:37:35;38.07;;;17.37;;
19161;SDS011;9713;48.140;11.530;2023-01-23T00:41:18;40.23;;;18.10;;
19161;SDS011;9713;48.140;11.530;2023-01-23T00:45:01;39.27;;;17.83;;
19161;SDS011;9713;48.140;11.530;2023-01-23T00:48:45;43.60;;;18.63;;
19161;SDS011;9713;48.140;11.530;2023-01-23T00:52:28;37.27;;;16.80;;
19161;SDS011;9713;48.140;11.530;2023-01-23T00:56:10;37.90;;;17.50;;
19161;SDS011;9713;48.140;11.530;2023-01-23T00:59:53;41.23;;;18.47;;
19161;SDS011;9713;48.140;11.530;2023-01-23T01:03:39;39.63;;;17.07;;
19161;SDS011;9713;48.140;11.530;2023-01-23T01:07:23;39.77;;;17.33;;
19161;SDS011;9713;48.140;11.530;2023-01-23T01:11:06;42.27;;;18.23;;
19161;SDS011;9713;48.140;11.530;2023-01-23T01:14:49;35.97;;;16.37;;
19161;SDS011;9713;48.140;11.530;2023-01-23T01:18:32;38.77;;;17.93;;
19161;SDS011;9713;48.140;11.530;2023-01-23T01:22:14;42.60;;;18.20;;
19161;SDS011;9713;48.140;11.530;2023-01-23T01:25:59;34.83;;;15.40;;
19161;SDS011;9713;48.140;11.530;2023-01-23T01:29:44;40.53;;;17.10;;
19161;SDS011;9713;48.140;11.530;2023-01-23T01:33:28;40.00;;;17.20;;
19161;SDS011;9713;48.140;11.530;2023-01-23T01:37:11;36.80;;;17.10;;
19161;SDS011;9713;48.140;11.530;2023-01-23T01:40:54;34.77;;;16.13;;
19161;SDS011;9713;48.140;11.530;2023-01-23T01:44:51;37.10;;;16.83;;
19161;SDS011;9713;48.140;11.530;2023-01-23T01:48:36;37.63;;;16.97;;
19161;SDS011;9713;48.140;11.530;2023-01-23T01:52:21;40.13;;;17.87;;
19161;SDS011;9713;48.140;11.530;2023-01-23T01:56:05;38.17;;;17.00;;
19161;SDS011;9713;48.140;11.530;2023-01-23T01:59:51;39.83;;;18.13;;
19161;SDS011;9713;48.140;11.530;2023-01-23T02:03:36;37.63;;;17.53;;
19161;SDS011;9713;48.140;11.530;2023-01-23T02:07:20;37.17;;;17.27;;
19161;SDS011;9713;48.140;11.530;2023-01-23T02:11:05;36.93;;;17.30;;
19161;SDS011;9713;48.140;11.530;2023-01-23T02:14:48;40.13;;;18.63;;
19161;SDS011;9713;48.140;11.530;2023-01-23T02:18:33;36.20;;;16.20;;
19161;SDS011;9713;48.140;11.530;2023-01-23T02:22:21;41.30;;;18.87;;
19161;SDS011;9713;48.140;11.530;2023-01-23T02:26:12;40.43;;;18.00;;
19161;SDS011;9713;48.140;11.530;2023-01-23T02:29:55;41.97;;;18.50;;
19161;SDS011;9713;48.140;11.530;2023-01-23T02:33:43;41.57;;;17.70;;
19161;SDS011;9713;48.140;11.530;2023-01-23T02:37:28;40.70;;;18.60;;
19161;SDS011;9713;48.140;11.530;2023-01-23T02:41:15;36.20;;;16.73;;
19161;SDS011;9713;48.140;11.530;2023-01-23T02:45:00;40.80;;;18.10;;
19161;SDS011;9713;48.140;11.530;2023-01-23T02:48:43;36.67;;;17.03;;
19161;SDS011;9713;48.140;11.530;2023-01-23T02:52:27;42.77;;;18.13;;
19161;SDS011;9713;48.140;11.530;2023-01-23T02:56:12;44.77;;;19.53;;
19161;SDS011;9713;48.140;11.530;2023-01-23T02:59:57;38.40;;;17.53;;
19161;SDS011;9713;48.140;11.530;2023-01-23T03:04:01;41.87;;;18.17;;
19161;SDS011;9713;48.140;11.530;2023-01-23T03:07:45;39.30;;;18.30;;
19161;SDS011;9713;48.140;11.530;2023-01-23T03:11:27;39.50;;;17.97;;
19161;SDS011;9713;48.140;11.530;2023-01-23T03:15:11;37.57;;;17.57;;
19161;SDS011;9713;48.140;11.530;2023-01-23T03:18:54;38.53;;;17.67;;
19161;SDS011;9713;48.140;11.530;2023-01-23T03:22:41;39.60;;;17.63;;
19161;SDS011;9713;48.140;11.530;2023-01-23T03:26:24;40.80;;;18.17;;
19161;SDS011;9713;48.140;11.530;2023-01-23T03:30:09;41.23;;;17.03;;
19161;SDS011;9713;48.140;11.530;2023-01-23T03:33:57;39.00;;;17.03;;
19161;SDS011;9713;48.140;11.530;2023-01-23T03:37:40;36.03;;;17.37;;
19161;SDS011;9713;48.140;11.530;2023-01-23T03:41:23;31.60;;;14.83;;
19161;SDS011;9713;48.140;11.530;2023-01-23T03:45:05;33.23;;;15.17;;
19161;SDS011;9713;48.140;11.530;2023-01-23T03:48:51;31.77;;;15.10;;
19161;SDS011;9713;48.140;11.530;2023-01-23T03:52:35;32.53;;;15.47;;
19161;SDS011;9713;48.140;11.530;2023-01-23T03:56:19;30.83;;;14.90;;
19161;SDS011;9713;48.140;11.530;2023-01-23T04:00:02;29.93;;;14.87;;
19161;SDS011;9713;48.140;11.530;2023-01-23T04:03:45;31.30;;;14.77;;
19161;SDS011;9713;48.140;11.530;2023-01-23T04:07:28;29.47;;;14.47;;
19161;SDS011;9713;48.140;11.530;2023-01-23T04:11:12;32.03;;;15.10;;
19161;SDS011;9713;48.140;11.530;2023-01-23T04:14:55;34.27;;;15.53;;
19161;SDS011;9713;48.140;11.530;2023-01-23T04:18:38;30.77;;;14.63;;
19161;SDS011;9713;48.140;11.530;2023-01-23T04:22:24;30.77;;;14.77;;
19161;SDS011;9713;48.140;11.530;2023-01-23T04:26:06;29.87;;;14.40;;
19161;SDS011;9713;48.140;11.530;2023-01-23T04:29:53;30.47;;;15.17;;
19161;SDS011;9713;48.140;11.530;2023-01-23T04:33:39;33.33;;;15.27;;
19161;SDS011;9713;48.140;11.530;2023-01-23T04:37:22;29.50;;;13.40;;
19161;SDS011;9713;48.140;11.530;2023-01-23T04:41:04;27.17;;;13.37;;
19161;SDS011;9713;48.140;11.530;2023-01-23T04:44:47;28.67;;;14.30;;
19161;SDS011;9713;48.140;11.530;2023-01-23T04:48:31;27.17;;;13.20;;
19161;SDS011;9713;48.140;11.530;2023-01-23T04:52:14;28.33;;;14.33;;
19161;SDS011;9713;48.140;11.530;2023-01-23T04:55:56;28.57;;;13.80;;
19161;SDS011;9713;48.140;11.530;2023-01-23T04:59:39;29.03;;;14.13;;
19161;SDS011;9713;48.140;11.530;2023-01-23T05:03:22;28.37;;;14.33;;
19161;SDS011;9713;48.140;11.530;2023-01-23T05:07:06;30.73;;;14.87;;
19161;SDS011;9713;48.140;11.530;2023-01-23T05:10:52;31.70;;;15.67;;
19161;SDS011;9713;48.140;11.530;2023-01-23T05:14:35;28.77;;;14.60;;
19161;SDS011;9713;48.140;11.530;2023-01-23T05:18:20;33.33;;;15.33;;
19161;SDS011;9713;48.140;11.530;2023-01-23T05:22:02;30.30;;;15.60;;
19161;SDS011;9713;48.140;11.530;2023-01-23T05:25:49;30.83;;;15.80;;
19161;SDS011;9713;48.140;11.530;2023-01-23T05:29:32;28.97;;;14.57;;
19161;SDS011;9713;48.140;11.530;2023-01-23T05:33:15;31.03;;;15.17;;
19161;SDS011;9713;48.140;11.530;2023-01-23T05:36:57;30.97;;;15.23;;
19161;SDS011;9713;48.140;11.530;2023-01-23T05:40:40;31.90;;;15.17;;
19161;SDS011;9713;48.140;11.530;2023-01-23T05:44:24;30.13;;;15.17;;
19161;SDS011;9713;48.140;11.530;2023-01-23T05:48:07;28.67;;;14.20;;
19161;SDS011;9713;48.140;11.530;2023-01-23T05:51:50;32.33;;;15.37;;
19161;SDS011;9713;48.140;11.530;2023-01-23T05:55:32;31.43;;;14.70;;
19161;SDS011;9713;48.140;11.530;2023-01-23T05:59:15;33.77;;;15.63;;
19161;SDS011;9713;48.140;11.530;2023-01-23T06:02:59;30.37;;;14.67;;
19161;SDS011;9713;48.140;11.530;2023-01-23T06:06:42;32.33;;;15.93;;
19161;SDS011;9713;48.140;11.530;2023-01-23T06:10:25;34.23;;;16.47;;
19161;SDS011;9713;48.140;11.530;2023-01-23T06:14:08;29.67;;;14.67;;
19161;SDS011;9713;48.140;11.530;2023-01-23T06:17:50;31.30;;;15.63;;
19161;SDS011;9713;48.140;11.530;2023-01-23T06:21:34;31.37;;;15.43;;
19161;SDS011;9713;48.140;11.530;2023-01-23T06:25:17;32.03;;;15.33;;
19161;SDS011;9713;48.140;11.530;2023-01-23T06:29:02;35.93;;;15.50;;
19161;SDS011;9713;48.140;11.530;2023-01-23T06:32:44;36.20;;;16.43;;
19161;SDS011;9713;48.140;11.530;2023-01-23T06:36:27;36.40;;;15.93;;
19161;SDS011;9713;48.140;11.530;2023-01-23T06:40:12;35.53;;;16.87;;
19161;SDS011;9713;48.140;11.530;2023-01-23T06:43:56;36.73;;;16.67;;
19161;SDS011;9713;48.140;11.530;2023-01-23T06:47:39;38.40;;;16.60;;
19161;SDS011;9713;48.140;11.530;2023-01-23T06:51:21;40.73;;;17.97;;
19161;SDS011;9713;48.140;11.530;2023-01-23T06:55:05;45.57;;;19.07;;
19161;SDS011;9713;48.140;11.530;2023-01-23T06:58:49;48.57;;;21.13;;
19161;SDS011;9713;48.140;11.530;2023-01-23T07:02:32;54.00;;;21.30;;
19161;SDS011;9713;48.140;11.530;2023-01-23T07:06:15;54.27;;;20.53;;
19161;SDS011;9713;48.140;11.530;2023-01-23T07:09:58;50.73;;;19.97;;
19161;SDS011;9713;48.140;11.530;2023-01-23T07:13:42;53.83;;;20.07;;
19161;SDS011;9713;48.140;11.530;2023-01-23T07:17:29;56.00;;;20.73;;
19161;SDS011;9713;48.140;11.530;2023-01-23T07:21:12;55.20;;;20.03;;
19161;SDS011;9713;48.140;11.530;2023-01-23T07:24:55;53.83;;;19.97;;
19161;SDS011;9713;48.140;11.530;2023-01-23T07:28:40;54.53;;;19.57;;
19161;SDS011;9713;48.140;11.530;2023-01-23T07:32:24;51.03;;;18.27;;
19161;SDS011;9713;48.140;11.530;2023-01-23T07:36:09;51.60;;;19.93;;
19161;SDS011;9713;48.140;11.530;2023-01-23T07:39:55;49.50;;;18.13;;
19161;SDS011;9713;48.140;11.530;2023-01-23T07:43:41;50.87;;;19.00;;
19161;SDS011;9713;48.140;11.530;2023-01-23T07:47:24;51.63;;;19.40;;
19161;SDS011;9713;48.140;11.530;2023-01-23T07:51:06;52.00;;;20.23;;
19161;SDS011;9713;48.140;11.530;2023-01-23T07:54:51;56.37;;;20.73;;
19161;SDS011;9713;48.140;11.530;2023-01-23T07:58:34;56.27;;;19.90;;
19161;SDS011;9713;48.140;11.530;2023-01-23T08:02:19;46.73;;;18.20;;
19161;SDS011;9713;48.140;11.530;2023-01-23T08:06:02;46.37;;;17.90;;
19161;SDS011;9713;48.140;11.530;2023-01-23T08:09:47;48.67;;;18.53;;
19161;SDS011;9713;48.140;11.530;2023-01-23T08:13:29;52.73;;;19.20;;
19161;SDS011;9713;48.140;11.530;2023-01-23T08:17:12;47.23;;;18.47;;
19161;SDS011;9713;48.140;11.530;2023-01-23T08:20:55;46.30;;;18.10;;
19161;SDS011;9713;48.140;11.530;2023-01-23T08:24:39;47.47;;;18.47;;
19161;SDS011;9713;48.140;11.530;2023-01-23T08:28:24;41.73;;;16.93;;
19161;SDS011;9713;48.140;11.530;2023-01-23T08:32:07;42.97;;;17.20;;
19161;SDS011;9713;48.140;11.530;2023-01-23T08:35:50;45.50;;;18.13;;
19161;SDS011;9713;48.140;11.530;2023-01-23T08:39:34;36.23;;;15.70;;
19161;SDS011;9713;48.140;11.530;2023-01-23T08:43:17;41.87;;;17.17;;
19161;SDS011;9713;48.140;11.530;2023-01-23T08:47:02;38.00;;;15.83;;
19161;SDS011;9713;48.140;11.530;2023-01-23T08:50:44;40.53;;;16.03;;
19161;SDS011;9713;48.140;11.530;2023-01-23T08:54:27;36.63;;;15.97;;
19161;SDS011;9713;48.140;11.530;2023-01-23T08:58:10;39.13;;;16.10;;
19161;SDS011;9713;48.140;11.530;2023-01-23T09:01:53;38.23;;;16.13;;
19161;SDS011;9713;48.140;11.530;2023-01-23T09:05:37;35.93;;;16.77;;
19161;SDS011;9713;48.140;11.530;2023-01-23T09:09:20;34.73;;;15.43;;
19161;SDS011;9713;48.140;11.530;2023-01-23T09:13:03;34.63;;;15.40;;
19161;SDS011;9713;48.140;11.530;2023-01-23T09:16:46;37.53;;;16.67;;
19161;SDS011;9713;48.140;11.530;2023-01-23T09:20:29;33.07;;;15.67;;
19161;SDS011;9713;48.140;11.530;2023-01-23T09:24:13;35.30;;;15.00;;
19161;SDS011;9713;48.140;11.530;2023-01-23T09:27:56;33.97;;;15.33;;
19161;SDS011;9713;48.140;11.530;2023-01-23T09:31:38;38.03;;;15.80;;
19161;SDS011;9713;48.140;11.530;2023-01-23T09:35:21;35.83;;;15.70;;
19161;SDS011;9713;48.140;11.530;2023-01-23T09:39:04;35.80;;;15.50;;
19161;SDS011;9713;48.140;11.530;2023-01-23T09:42:48;34.40;;;15.93;;
19161;SDS011;9713;48.140;11.530;2023-01-23T09:46:32;39.93;;;16.83;;
19161;SDS011;9713;48.140;11.530;2023-01-23T09:50:18;39.23;;;16.40;;
19161;SDS011;9713;48.140;11.530;2023-01-23T09:54:10;38.27;;;16.40;;
19161;SDS011;9713;48.140;11.530;2023-01-23T09:57:59;40.10;;;18.00;;
19161;SDS011;9713;48.140;11.530;2023-01-23T10:01:43;39.60;;;16.67;;
19161;SDS011;9713;48.140;11.530;2023-01-23T10:05:28;38.80;;;16.63;;
19161;SDS011;9713;48.140;11.530;2023-01-23T10:09:18;34.93;;;16.60;;
19161;SDS011;9713;48.140;11.530;2023-01-23T10:13:09;37.87;;;16.67;;
19161;SDS011;9713;48.140;11.530;2023-01-23T10:17:02;36.97;;;16.80;;
19161;SDS011;9713;48.140;11.530;2023-01-23T10:20:56;37.07;;;17.60;;
19161;SDS011;9713;48.140;11.530;2023-01-23T10:24:48;37.50;;;16.67;;
19161;SDS011;9713;48.140;11.530;2023-01-23T10:28:33;36.80;;;16.67;;
19161;SDS011;9713;48.140;11.530;2023-01-23T10:32:22;34.77;;;15.80;;
19161;SDS011;9713;48.140;11.530;2023-01-23T10:36:08;37.17;;;17.10;;
19161;SDS011;9713;48.140;11.530;2023-01-23T10:40:06;38.93;;;17.40;;
19161;SDS011;9713;48.140;11.530;2023-01-23T10:43:53;38.90;;;17.13;;
19161;SDS011;9713;48.140;11.530;2023-01-23T10:47:41;36.70;;;16.70;;
19161;SDS011;9713;48.140;11.530;2023-01-23T10:51:45;40.17;;;17.40;;
19161;SDS011;9713;48.140;11.530;2023-01-23T10:55:29;39.20;;;17.33;;
19161;SDS011;9713;48.140;11.530;2023-01-23T10:59:17;37.70;;;16.83;;
19161;SDS011;9713;48.140;11.530;2023-01-23T11:07:10;40.20;;;17.60;;
19161;SDS011;9713;48.140;11.530;2023-01-23T11:11:16;41.07;;;18.53;;
19161;SDS011;9713;48.140;11.530;2023-01-23T11:15:20;44.87;;;18.90;;
19161;SDS011;9713;48.140;11.530;2023-01-23T11:19:10;45.10;;;18.10;;
19161;SDS011;9713;48.140;11.530;2023-01-23T11:23:01;41.27;;;18.20;;
19161;SDS011;9713;48.140;11.530;2023-01-23T11:26:46;39.10;;;18.33;;
19161;SDS011;9713;48.140;11.530;2023-01-23T11:30:32;42.43;;;18.27;;
19161;SDS011;9713;48.140;11.530;2023-01-23T11:34:18;43.03;;;18.87;;
19161;SDS011;9713;48.140;11.530;2023-01-23T11:38:04;37.23;;;17.00;;
19161;SDS011;9713;48.140;11.530;2023-01-23T11:41:47;39.33;;;17.63;;
19161;SDS011;9713;48.140;11.530;2023-01-23T11:45:36;36.17;;;17.03;;
19161;SDS011;9713;48.140;11.530;2023-01-23T11:49:27;37.90;;;17.33;;
19161;SDS011;9713;48.140;11.530;2023-01-23T11:53:19;37.63;;;16.97;;
19161;SDS011;9713;48.140;11.530;2023-01-23T11:57:17;38.87;;;17.73;;
19161;SDS011;9713;48.140;11.530;2023-01-23T12:01:06;36.20;;;17.23;;
19161;SDS011;9713;48.140;11.530;2023-01-23T12:04:56;41.43;;;18.47;;
19161;SDS011;9713;48.140;11.530;2023-01-23T12:08:47;38.93;;;17.47;;
19161;SDS011;9713;48.140;11.530;2023-01-23T12:12:44;42.20;;;18.07;;
19161;SDS011;9713;48.140;11.530;2023-01-23T12:16:36;39.37;;;17.20;;
19161;SDS011;9713;48.140;11.530;2023-01-23T12:20:30;37.17;;;17.03;;
19161;SDS011;9713;48.140;11.530;2023-01-23T12:24:18;35.93;;;17.67;;
19161;SDS011;9713;48.140;11.530;2023-01-23T12:28:17;37.27;;;17.13;;
19161;SDS011;9713;48.140;11.530;2023-01-23T12:32:10;38.43;;;17.93;;
19161;SDS011;9713;48.140;11.530;2023-01-23T12:36:09;36.40;;;16.70;;
19161;SDS011;9713;48.140;11.530;2023-01-23T12:40:03;36.77;;;17.07;;
19161;SDS011;9713;48.140;11.530;2023-01-23T12:43:53;36.07;;;16.83;;
19161;SDS011;9713;48.140;11.530;2023-01-23T12:47:40;38.27;;;18.30;;
19161;SDS011;9713;48.140;11.530;2023-01-23T12:51:28;33.03;;;16.90;;
19161;SDS011;9713;48.140;11.530;2023-01-23T12:55:17;34.57;;;16.87;;
19161;SDS011;9713;48.140;11.530;2023-01-23T12:59:05;34.77;;;17.07;;
19161;SDS011;9713;48.140;11.530;2023-01-23T13:02:52;40.57;;;18.27;;
19161;SDS011;9713;48.140;11.530;2023-01-23T13:06:49;36.17;;;17.23;;
19161;SDS011;9713;48.140;11.530;2023-01-23T13:10:52;36.53;;;16.50;;
19161;SDS011;9713;48.140;11.530;2023-01-23T13:19:22;33.27;;;15.97;;
19161;SDS011;9713;48.140;11.530;2023-01-23T13:23:24;36.77;;;17.30;;
19161;SDS011;9713;48.140;11.530;2023-01-23T13:31:23;36.27;;;16.93;;
19161;SDS011;9713;48.140;11.530;2023-01-23T13:39:26;35.67;;;16.93;;
19161;SDS011;9713;48.140;11.530;2023-01-23T13:47:23;35.20;;;16.20;;
19161;SDS011;9713;48.140;11.530;2023-01-23T13:51:41;33.57;;;15.53;;
19161;SDS011;9713;48.140;11.530;2023-01-23T13:55:40;33.13;;;15.17;;
19161;SDS011;9713;48.140;11.530;2023-01-23T13:59:55;32.30;;;15.00;;
19161;SDS011;9713;48.140;11.530;2023-01-23T14:03:54;32.20;;;15.50;;
19161;SDS011;9713;48.140;11.530;2023-01-23T14:08:15;32.10;;;14.80;;
19161;SDS011;9713;48.140;11.530;2023-01-23T14:12:14;36.40;;;15.60;;
19161;SDS011;9713;48.140;11.530;2023-01-23T14:16:12;33.60;;;16.30;;
19161;SDS011;9713;48.140;11.530;2023-01-23T14:20:17;29.27;;;14.63;;
19161;SDS011;9713;48.140;11.530;2023-01-23T14:24:00;33.53;;;16.40;;
19161;SDS011;9713;48.140;11.530;2023-01-23T14:27:45;31.53;;;15.50;;
19161;SDS011;9713;48.140;11.530;2023-01-23T14:31:35;31.37;;;14.90;;
19161;SDS011;9713;48.140;11.530;2023-01-23T14:35:25;31.50;;;15.87;;
19161;SDS011;9713;48.140;11.530;2023-01-23T14:39:10;35.90;;;15.70;;
19161;SDS011;9713;48.140;11.530;2023-01-23T14:43:00;30.10;;;14.87;;
19161;SDS011;9713;48.140;11.530;2023-01-23T14:46:45;31.53;;;14.77;;
19161;SDS011;9713;48.140;11.530;2023-01-23T14:50:28;29.17;;;13.87;;
19161;SDS011;9713;48.140;11.530;2023-01-23T14:54:16;29.60;;;14.67;;
19161;SDS011;9713;48.140;11.530;2023-01-23T14:58:04;28.60;;;14.20;;
19161;SDS011;9713;48.140;11.530;2023-01-23T15:01:54;31.43;;;14.93;;
19161;SDS011;9713;48.140;11.530;2023-01-23T15:05:54;33.90;;;15.43;;
19161;SDS011;9713;48.140;11.530;2023-01-23T15:09:39;28.47;;;14.50;;
19161;SDS011;9713;48.140;11.530;2023-01-23T15:13:28;32.30;;;15.53;;
19161;SDS011;9713;48.140;11.530;2023-01-23T15:17:17;29.03;;;14.47;;
19161;SDS011;9713;48.140;11.530;2023-01-23T15:21:01;32.07;;;14.27;;
19161;SDS011;9713;48.140;11.530;2023-01-23T15:24:45;31.90;;;15.03;;
19161;SDS011;9713;48.140;11.530;2023-01-23T15:28:30;29.07;;;14.90;;
19161;SDS011;9713;48.140;11.530;2023-01-23T15:32:14;32.17;;;15.17;;
19161;SDS011;9713;48.140;11.530;2023-01-23T15:36:02;35.43;;;16.07;;
19161;SDS011;9713;48.140;11.530;2023-01-23T15:39:47;35.33;;;15.40;;
19161;SDS011;9713;48.140;11.530;2023-01-23T15:43:36;36.47;;;16.30;;
19161;SDS011;9713;48.140;11.530;2023-01-23T15:47:18;31.93;;;15.70;;
19161;SDS011;9713;48.140;11.530;2023-01-23T15:51:01;42.43;;;16.77;;
19161;SDS011;9713;48.140;11.530;2023-01-23T15:54:44;34.00;;;16.07;;
19161;SDS011;9713;48.140;11.530;2023-01-23T15:58:27;37.80;;;16.43;;
19161;SDS011;9713;48.140;11.530;2023-01-23T16:02:13;35.73;;;15.70;;
19161;SDS011;9713;48.140;11.530;2023-01-23T16:06:12;39.63;;;16.93;;
19161;SDS011;9713;48.140;11.530;2023-01-23T16:09:57;37.63;;;17.43;;
19161;SDS011;9713;48.140;11.530;2023-01-23T16:13:39;38.70;;;17.13;;
19161;SDS011;9713;48.140;11.530;2023-01-23T16:17:23;39.90;;;16.70;;
19161;SDS011;9713;48.140;11.530;2023-01-23T16:21:06;37.30;;;16.47;;
19161;SDS011;9713;48.140;11.530;2023-01-23T16:24:52;41.40;;;18.00;;
19161;SDS011;9713;48.140;11.530;2023-01-23T16:28:35;43.63;;;18.17;;
19161;SDS011;9713;48.140;11.530;2023-01-23T16:32:18;43.90;;;17.80;;
19161;SDS011;9713;48.140;11.530;2023-01-23T16:36:02;46.37;;;18.17;;
19161;SDS011;9713;48.140;11.530;2023-01-23T16:39:47;46.77;;;19.20;;
19161;SDS011;9713;48.140;11.530;2023-01-23T16:43:29;44.20;;;18.70;;
19161;SDS011;9713;48.140;11.530;2023-01-23T16:47:12;49.30;;;19.73;;
19161;SDS011;9713;48.140;11.530;2023-01-23T16:50:56;45.67;;;18.50;;
19161;SDS011;9713;48.140;11.530;2023-01-23T16:54:43;46.83;;;19.17;;
19161;SDS011;9713;48.140;11.530;2023-01-23T16:58:26;44.87;;;19.27;;
19161;SDS011;9713;48.140;11.530;2023-01-23T17:02:13;45.77;;;18.73;;
19161;SDS011;9713;48.140;11.530;2023-01-23T17:05:58;46.17;;;19.17;;
19161;SDS011;9713;48.140;11.530;2023-01-23T17:09:42;46.37;;;18.97;;
19161;SDS011;9713;48.140;11.530;2023-01-23T17:13:25;43.20;;;18.37;;
19161;SDS011;9713;48.140;11.530;2023-01-23T17:17:09;45.40;;;20.00;;
19161;SDS011;9713;48.140;11.530;2023-01-23T17:20:53;47.07;;;19.60;;
19161;SDS011;9713;48.140;11.530;2023-01-23T17:24:38;42.73;;;18.03;;
19161;SDS011;9713;48.140;11.530;2023-01-23T17:28:22;42.97;;;19.70;;
19161;SDS011;9713;48.140;11.530;2023-01-23T17:32:04;46.77;;;19.20;;
19161;SDS011;9713;48.140;11.530;2023-01-23T17:35:47;44.27;;;19.53;;
19161;SDS011;9713;48.140;11.530;2023-01-23T17:39:31;43.07;;;18.53;;
19161;SDS011;9713;48.140;11.530;2023-01-23T17:43:15;46.07;;;19.40;;
19161;SDS011;9713;48.140;11.530;2023-01-23T17:47:00;40.73;;;17.70;;
19161;SDS011;9713;48.140;11.530;2023-01-23T17:50:43;38.00;;;17.53;;
19161;SDS011;9713;48.140;11.530;2023-01-23T17:54:27;38.87;;;16.93;;
19161;SDS011;9713;48.140;11.530;2023-01-23T17:58:10;41.93;;;18.50;;
19161;SDS011;9713;48.140;11.530;2023-01-23T18:01:54;39.77;;;17.80;;
19161;SDS011;9713;48.140;11.530;2023-01-23T18:05:38;34.27;;;16.03;;
19161;SDS011;9713;48.140;11.530;2023-01-23T18:09:21;37.37;;;16.60;;
19161;SDS011;9713;48.140;11.530;2023-01-23T18:13:06;38.80;;;16.50;;
19161;SDS011;9713;48.140;11.530;2023-01-23T18:16:54;40.70;;;18.03;;
19161;SDS011;9713;48.140;11.530;2023-01-23T18:20:38;39.30;;;17.33;;
19161;SDS011;9713;48.140;11.530;2023-01-23T18:24:22;38.73;;;17.67;;
19161;SDS011;9713;48.140;11.530;2023-01-23T18:28:07;38.20;;;16.87;;
19161;SDS011;9713;48.140;11.530;2023-01-23T18:32:01;42.57;;;18.80;;
19161;SDS011;9713;48.140;11.530;2023-01-23T18:35:58;41.43;;;18.27;;
19161;SDS011;9713;48.140;11.530;2023-01-23T18:39:52;41.97;;;18.93;;
19161;SDS011;9713;48.140;11.530;2023-01-23T18:43:40;47.73;;;19.60;;
19161;SDS011;9713;48.140;11.530;2023-01-23T18:47:24;44.77;;;18.67;;
19161;SDS011;9713;48.140;11.530;2023-01-23T18:51:12;42.67;;;18.87;;
19161;SDS011;9713;48.140;11.530;2023-01-23T18:55:03;45.80;;;19.30;;
19161;SDS011;9713;48.140;11.530;2023-01-23T18:58:52;43.53;;;18.63;;
19161;SDS011;9713;48.140;11.530;2023-01-23T19:02:53;45.43;;;19.70;;
19161;SDS011;9713;48.140;11.530;2023-01-23T19:06:40;44.50;;;19.70;;
19161;SDS011;9713;48.140;11.530;2023-01-23T19:10:25;47.63;;;19.77;;
19161;SDS011;9713;48.140;11.530;2023-01-23T19:14:16;45.73;;;19.67;;
19161;SDS011;9713;48.140;11.530;2023-01-23T19:18:08;52.70;;;20.80;;
19161;SDS011;9713;48.140;11.530;2023-01-23T19:22:23;49.20;;;19.83;;
19161;SDS011;9713;48.140;11.530;2023-01-23T19:26:07;51.30;;;20.37;;
19161;SDS011;9713;48.140;11.530;2023-01-23T19:29:51;48.73;;;20.47;;
19161;SDS011;9713;48.140;11.530;2023-01-23T19:33:34;45.73;;;19.50;;
19161;SDS011;9713;48.140;11.530;2023-01-23T19:37:17;48.37;;;19.80;;
19161;SDS011;9713;48.140;11.530;2023-01-23T19:41:01;52.97;;;20.00;;
19161;SDS011;9713;48.140;11.530;2023-01-23T19:44:43;49.07;;;20.43;;
19161;SDS011;9713;48.140;11.530;2023-01-23T19:48:26;49.23;;;20.47;;
19161;SDS011;9713;48.140;11.530;2023-01-23T19:52:10;43.73;;;19.23;;
19161;SDS011;9713;48.140;11.530;2023-01-23T19:55:53;46.97;;;20.60;;
19161;SDS011;9713;48.140;11.530;2023-01-23T19:59:37;54.50;;;22.43;;
19161;SDS011;9713;48.140;11.530;2023-01-23T20:03:20;55.43;;;22.77;;
19161;SDS011;9713;48.140;11.530;2023-01-23T20:07:03;51.43;;;22.20;;
19161;SDS011;9713;48.140;11.530;2023-01-23T20:10:45;56.27;;;22.17;;
19161;SDS011;9713;48.140;11.530;2023-01-23T20:14:28;54.10;;;22.13;;
19161;SDS011;9713;48.140;11.530;2023-01-23T20:18:12;53.67;;;21.50;;
19161;SDS011;9713;48.140;11.530;2023-01-23T20:21:56;54.07;;;22.67;;
19161;SDS011;9713;48.140;11.530;2023-01-23T20:25:38;51.80;;;21.83;;
19161;SDS011;9713;48.140;11.530;2023-01-23T20:29:21;50.60;;;20.93;;
19161;SDS011;9713;48.140;11.530;2023-01-23T20:33:05;48.03;;;20.60;;
19161;SDS011;9713;48.140;11.530;2023-01-23T20:36:49;50.67;;;21.37;;
19161;SDS011;9713;48.140;11.530;2023-01-23T20:40:35;50.87;;;20.47;;
19161;SDS011;9713;48.140;11.530;2023-01-23T20:44:18;51.07;;;21.50;;
19161;SDS011;9713;48.140;11.530;2023-01-23T20:48:01;56.00;;;21.50;;
19161;SDS011;9713;48.140;11.530;2023-01-23T20:51:46;47.43;;;20.33;;
19161;SDS011;9713;48.140;11.530;2023-01-23T20:55:30;50.27;;;21.77;;
19161;SDS011;9713;48.140;11.530;2023-01-23T20:59:12;53.50;;;22.70;;
19161;SDS011;9713;48.140;11.530;2023-01-23T21:03:03;55.10;;;22.20;;
19161;SDS011;9713;48.140;11.530;2023-01-23T21:06:46;55.67;;;22.20;;
19161;SDS011;9713;48.140;11.530;2023-01-23T21:10:30;53.53;;;21.80;;
19161;SDS011;9713;48.140;11.530;2023-01-23T21:14:13;51.80;;;22.20;;
19161;SDS011;9713;48.140;11.530;2023-01-23T21:17:56;50.10;;;21.17;;
19161;SDS011;9713;48.140;11.530;2023-01-23T21:21:38;51.13;;;21.30;;
19161;SDS011;9713;48.140;11.530;2023-01-23T21:25:21;52.57;;;22.60;;
19161;SDS011;9713;48.140;11.530;2023-01-23T21:29:06;49.60;;;21.83;;
19161;SDS011;9713;48.140;11.530;2023-01-23T21:32:50;81.93;;;28.50;;
19161;SDS011;9713;48.140;11.530;2023-01-23T21:36:33;52.50;;;22.47;;
19161;SDS011;9713;48.140;11.530;2023-01-23T21:40:16;51.87;;;22.03;;
19161;SDS011;9713;48.140;11.530;2023-01-23T21:43:58;48.20;;;21.80;;
19161;SDS011;9713;48.140;11.530;2023-01-23T21:47:43;50.07;;;21.53;;
19161;SDS011;9713;48.140;11.530;2023-01-23T21:51:29;49.87;;;21.33;;
19161;SDS011;9713;48.140;11.530;2023-01-23T21:55:12;50.67;;;21.10;;
19161;SDS011;9713;48.140;11.530;2023-01-23T21:58:55;52.13;;;22.30;;
19161;SDS011;9713;48.140;11.530;2023-01-23T22:02:39;45.33;;;20.40;;
19161;SDS011;9713;48.140;11.530;2023-01-23T22:06:23;47.80;;;21.60;;
19161;SDS011;9713;48.140;11.530;2023-01-23T22:10:06;48.47;;;21.47;;
19161;SDS011;9713;48.140;11.530;2023-01-23T22:13:50;50.63;;;22.40;;
19161;SDS011;9713;48.140;11.530;2023-01-23T22:17:33;46.93;;;20.03;;
19161;SDS011;9713;48.140;11.530;2023-01-23T22:21:16;45.00;;;20.97;;